sensor_id;sensor_type;location;lat;lon;timestamp;P1;durP1;ratioP1;P2;durP2;ratioP2
6019;SDS011;3038;51.122;6.840;2023-03-14T00:00:12;3.53;;;1.97;;
6019;SDS011;3038;51.122;6.840;2023-03-14T00:02:39;2.63;;;2.30;;
6019;SDS011;3038;51.122;6.840;2023-03-14T00:05:05;4.00;;;2.00;;
6019;SDS011;3038;51.122;6.840;2023-03-14T00:07:34;5.50;;;2.10;;
6019;SDS011;3038;51.122;6.840;2023-03-14T00:10:05;4.63;;;2.00;;
6019;SDS011;3038;51.122;6.840;2023-03-14T00:12:32;3.50;;;1.97;;
6019;SDS011;3038;51.122;6.840;2023-03-14T00:14:57;3.20;;;2.20;;
6019;SDS011;3038;51.122;6.840;2023-03-14T00:17:25;6.33;;;2.20;;
6019;SDS011;3038;51.122;6.840;2023-03-14T00:19:52;3.93;;;2.90;;
6019;SDS011;3038;51.122;6.840;2023-03-14T00:22:19;8.30;;;2.50;;
6019;SDS011;3038;51.122;6.840;2023-03-14T00:24:45;5.30;;;2.33;;
6019;SDS011;3038;51.122;6.840;2023-03-14T00:27:10;3.93;;;2.40;;
6019;SDS011;3038;51.122;6.840;2023-03-14T00:29:35;4.67;;;2.30;;
6019;SDS011;3038;51.122;6.840;2023-03-14T00:32:01;4.30;;;1.97;;
6019;SDS011;3038;51.122;6.840;2023-03-14T00:34:30;5.40;;;2.77;;
6019;SDS011;3038;51.122;6.840;2023-03-14T00:36:56;5.77;;;2.80;;
6019;SDS011;3038;51.122;6.840;2023-03-14T00:39:21;5.33;;;1.87;;
6019;SDS011;3038;51.122;6.840;2023-03-14T00:41:46;4.97;;;1.87;;
6019;SDS011;3038;51.122;6.840;2023-03-14T00:44:12;3.70;;;1.70;;
6019;SDS011;3038;51.122;6.840;2023-03-14T00:46:38;5.67;;;1.90;;
6019;SDS011;3038;51.122;6.840;2023-03-14T00:49:03;4.80;;;1.63;;
6019;SDS011;3038;51.122;6.840;2023-03-14T00:51:28;5.03;;;1.67;;
6019;SDS011;3038;51.122;6.840;2023-03-14T00:53:54;3.80;;;1.30;;
6019;SDS011;3038;51.122;6.840;2023-03-14T00:56:19;5.43;;;1.10;;
6019;SDS011;3038;51.122;6.840;2023-03-14T00:58:45;4.07;;;1.33;;
6019;SDS011;3038;51.122;6.840;2023-03-14T01:01:14;2.57;;;1.00;;
6019;SDS011;3038;51.122;6.840;2023-03-14T01:03:41;3.47;;;0.97;;
6019;SDS011;3038;51.122;6.840;2023-03-14T01:06:11;7.40;;;1.70;;
6019;SDS011;3038;51.122;6.840;2023-03-14T01:08:38;5.97;;;1.40;;
6019;SDS011;3038;51.122;6.840;2023-03-14T01:11:05;1.20;;;0.80;;
6019;SDS011;3038;51.122;6.840;2023-03-14T01:13:34;2.90;;;1.20;;
6019;SDS011;3038;51.122;6.840;2023-03-14T01:16:03;2.83;;;1.10;;
6019;SDS011;3038;51.122;6.840;2023-03-14T01:18:31;1.90;;;1.00;;
6019;SDS011;3038;51.122;6.840;2023-03-14T01:20:57;4.60;;;0.90;;
6019;SDS011;3038;51.122;6.840;2023-03-14T01:23:23;3.50;;;1.10;;
6019;SDS011;3038;51.122;6.840;2023-03-14T01:25:48;4.17;;;0.97;;
6019;SDS011;3038;51.122;6.840;2023-03-14T01:28:13;2.50;;;1.20;;
6019;SDS011;3038;51.122;6.840;2023-03-14T01:30:39;5.00;;;1.07;;
6019;SDS011;3038;51.122;6.840;2023-03-14T01:33:04;3.07;;;0.90;;
6019;SDS011;3038;51.122;6.840;2023-03-14T01:35:30;4.57;;;1.80;;
6019;SDS011;3038;51.122;6.840;2023-03-14T01:37:55;2.60;;;1.07;;
6019;SDS011;3038;51.122;6.840;2023-03-14T01:40:20;4.30;;;1.03;;
6019;SDS011;3038;51.122;6.840;2023-03-14T01:42:46;3.03;;;1.20;;
6019;SDS011;3038;51.122;6.840;2023-03-14T01:48:22;7.03;;;1.57;;
6019;SDS011;3038;51.122;6.840;2023-03-14T01:50:47;5.70;;;1.20;;
6019;SDS011;3038;51.122;6.840;2023-03-14T01:53:13;4.53;;;1.30;;
6019;SDS011;3038;51.122;6.840;2023-03-14T01:55:39;4.43;;;2.43;;
6019;SDS011;3038;51.122;6.840;2023-03-14T01:58:05;6.90;;;3.10;;
6019;SDS011;3038;51.122;6.840;2023-03-14T02:00:31;4.30;;;1.10;;
6019;SDS011;3038;51.122;6.840;2023-03-14T02:02:57;2.70;;;1.33;;
6019;SDS011;3038;51.122;6.840;2023-03-14T02:05:32;4.60;;;1.47;;
6019;SDS011;3038;51.122;6.840;2023-03-14T02:08:00;6.40;;;1.70;;
6019;SDS011;3038;51.122;6.840;2023-03-14T02:10:27;2.97;;;1.37;;
6019;SDS011;3038;51.122;6.840;2023-03-14T02:12:56;4.07;;;1.30;;
6019;SDS011;3038;51.122;6.840;2023-03-14T02:15:26;3.93;;;1.10;;
6019;SDS011;3038;51.122;6.840;2023-03-14T02:17:52;6.83;;;1.50;;
6019;SDS011;3038;51.122;6.840;2023-03-14T02:20:24;5.10;;;1.60;;
6019;SDS011;3038;51.122;6.840;2023-03-14T02:23:03;3.43;;;1.30;;
6019;SDS011;3038;51.122;6.840;2023-03-14T02:25:35;1.90;;;1.20;;
6019;SDS011;3038;51.122;6.840;2023-03-14T02:28:16;2.90;;;1.50;;
6019;SDS011;3038;51.122;6.840;2023-03-14T02:30:42;2.60;;;1.30;;
6019;SDS011;3038;51.122;6.840;2023-03-14T02:33:16;3.07;;;1.20;;
6019;SDS011;3038;51.122;6.840;2023-03-14T02:35:45;3.30;;;1.33;;
6019;SDS011;3038;51.122;6.840;2023-03-14T02:38:20;5.33;;;1.50;;
6019;SDS011;3038;51.122;6.840;2023-03-14T02:40:52;3.43;;;1.40;;
6019;SDS011;3038;51.122;6.840;2023-03-14T02:43:18;5.53;;;1.53;;
6019;SDS011;3038;51.122;6.840;2023-03-14T02:45:44;6.27;;;1.67;;
6019;SDS011;3038;51.122;6.840;2023-03-14T02:48:13;4.43;;;1.60;;
6019;SDS011;3038;51.122;6.840;2023-03-14T02:50:41;6.77;;;1.87;;
6019;SDS011;3038;51.122;6.840;2023-03-14T02:53:08;4.87;;;1.57;;
6019;SDS011;3038;51.122;6.840;2023-03-14T02:55:33;5.03;;;1.77;;
6019;SDS011;3038;51.122;6.840;2023-03-14T02:57:59;3.67;;;1.40;;
6019;SDS011;3038;51.122;6.840;2023-03-14T03:00:24;2.17;;;0.90;;
6019;SDS011;3038;51.122;6.840;2023-03-14T03:02:50;2.00;;;1.20;;
6019;SDS011;3038;51.122;6.840;2023-03-14T03:05:15;3.83;;;1.90;;
6019;SDS011;3038;51.122;6.840;2023-03-14T03:07:41;5.30;;;1.80;;
6019;SDS011;3038;51.122;6.840;2023-03-14T03:10:09;2.93;;;1.17;;
6019;SDS011;3038;51.122;6.840;2023-03-14T03:12:34;3.73;;;1.50;;
6019;SDS011;3038;51.122;6.840;2023-03-14T03:15:00;5.60;;;1.73;;
6019;SDS011;3038;51.122;6.840;2023-03-14T03:17:25;3.60;;;1.40;;
6019;SDS011;3038;51.122;6.840;2023-03-14T03:19:50;5.03;;;1.77;;
6019;SDS011;3038;51.122;6.840;2023-03-14T03:22:16;3.40;;;1.43;;
6019;SDS011;3038;51.122;6.840;2023-03-14T03:24:41;3.07;;;1.53;;
6019;SDS011;3038;51.122;6.840;2023-03-14T03:27:06;4.13;;;2.20;;
6019;SDS011;3038;51.122;6.840;2023-03-14T03:29:32;3.20;;;1.53;;
6019;SDS011;3038;51.122;6.840;2023-03-14T03:31:57;3.10;;;1.57;;
6019;SDS011;3038;51.122;6.840;2023-03-14T03:34:23;5.90;;;1.83;;
6019;SDS011;3038;51.122;6.840;2023-03-14T03:36:48;4.20;;;1.47;;
6019;SDS011;3038;51.122;6.840;2023-03-14T03:39:13;5.27;;;1.20;;
6019;SDS011;3038;51.122;6.840;2023-03-14T03:41:39;4.20;;;0.93;;
6019;SDS011;3038;51.122;6.840;2023-03-14T03:44:04;2.33;;;1.20;;
6019;SDS011;3038;51.122;6.840;2023-03-14T03:46:30;5.10;;;1.67;;
6019;SDS011;3038;51.122;6.840;2023-03-14T03:48:57;2.20;;;1.37;;
6019;SDS011;3038;51.122;6.840;2023-03-14T03:51:24;4.20;;;1.43;;
6019;SDS011;3038;51.122;6.840;2023-03-14T03:53:50;7.70;;;1.80;;
6019;SDS011;3038;51.122;6.840;2023-03-14T03:56:18;3.70;;;1.30;;
6019;SDS011;3038;51.122;6.840;2023-03-14T03:58:43;3.70;;;1.87;;
6019;SDS011;3038;51.122;6.840;2023-03-14T04:01:09;2.97;;;1.30;;
6019;SDS011;3038;51.122;6.840;2023-03-14T04:03:38;1.43;;;1.03;;
6019;SDS011;3038;51.122;6.840;2023-03-14T04:06:08;3.63;;;1.57;;
6019;SDS011;3038;51.122;6.840;2023-03-14T04:08:35;3.00;;;1.53;;
6019;SDS011;3038;51.122;6.840;2023-03-14T04:11:01;2.60;;;1.23;;
6019;SDS011;3038;51.122;6.840;2023-03-14T04:13:27;3.67;;;1.53;;
6019;SDS011;3038;51.122;6.840;2023-03-14T04:15:53;2.87;;;1.57;;
6019;SDS011;3038;51.122;6.840;2023-03-14T04:18:20;6.07;;;2.10;;
6019;SDS011;3038;51.122;6.840;2023-03-14T04:20:50;4.07;;;1.90;;
6019;SDS011;3038;51.122;6.840;2023-03-14T04:23:16;4.90;;;2.73;;
6019;SDS011;3038;51.122;6.840;2023-03-14T04:25:42;3.80;;;1.80;;
6019;SDS011;3038;51.122;6.840;2023-03-14T04:28:07;7.30;;;2.57;;
6019;SDS011;3038;51.122;6.840;2023-03-14T04:30:32;4.23;;;1.77;;
6019;SDS011;3038;51.122;6.840;2023-03-14T04:32:58;2.40;;;1.47;;
6019;SDS011;3038;51.122;6.840;2023-03-14T04:35:23;6.33;;;1.60;;
6019;SDS011;3038;51.122;6.840;2023-03-14T04:37:49;4.30;;;1.60;;
6019;SDS011;3038;51.122;6.840;2023-03-14T04:40:15;4.43;;;1.87;;
6019;SDS011;3038;51.122;6.840;2023-03-14T04:42:40;3.70;;;1.90;;
6019;SDS011;3038;51.122;6.840;2023-03-14T04:45:06;2.90;;;1.30;;
6019;SDS011;3038;51.122;6.840;2023-03-14T04:47:35;6.00;;;1.30;;
6019;SDS011;3038;51.122;6.840;2023-03-14T04:50:00;1.23;;;0.87;;
6019;SDS011;3038;51.122;6.840;2023-03-14T04:52:26;1.13;;;0.90;;
6019;SDS011;3038;51.122;6.840;2023-03-14T04:54:53;2.57;;;1.20;;
6019;SDS011;3038;51.122;6.840;2023-03-14T04:57:18;3.93;;;2.10;;
6019;SDS011;3038;51.122;6.840;2023-03-14T04:59:44;2.60;;;1.00;;
6019;SDS011;3038;51.122;6.840;2023-03-14T05:02:09;1.87;;;1.07;;
6019;SDS011;3038;51.122;6.840;2023-03-14T05:04:34;2.07;;;1.23;;
6019;SDS011;3038;51.122;6.840;2023-03-14T05:07:00;1.80;;;1.00;;
6019;SDS011;3038;51.122;6.840;2023-03-14T05:09:26;5.57;;;1.50;;
6019;SDS011;3038;51.122;6.840;2023-03-14T05:11:51;3.70;;;1.87;;
6019;SDS011;3038;51.122;6.840;2023-03-14T05:14:17;1.90;;;1.37;;
6019;SDS011;3038;51.122;6.840;2023-03-14T05:16:42;2.40;;;1.43;;
6019;SDS011;3038;51.122;6.840;2023-03-14T05:19:07;3.70;;;2.93;;
6019;SDS011;3038;51.122;6.840;2023-03-14T05:21:33;3.20;;;1.73;;
6019;SDS011;3038;51.122;6.840;2023-03-14T05:23:58;2.40;;;1.20;;
6019;SDS011;3038;51.122;6.840;2023-03-14T05:26:24;4.40;;;1.00;;
6019;SDS011;3038;51.122;6.840;2023-03-14T05:28:49;2.80;;;1.10;;
6019;SDS011;3038;51.122;6.840;2023-03-14T05:31:15;2.20;;;1.20;;
6019;SDS011;3038;51.122;6.840;2023-03-14T05:33:40;3.93;;;1.13;;
6019;SDS011;3038;51.122;6.840;2023-03-14T05:36:06;1.23;;;0.90;;
6019;SDS011;3038;51.122;6.840;2023-03-14T05:38:31;2.23;;;2.03;;
6019;SDS011;3038;51.122;6.840;2023-03-14T05:40:57;2.90;;;2.70;;
6019;SDS011;3038;51.122;6.840;2023-03-14T05:43:22;1.50;;;1.00;;
6019;SDS011;3038;51.122;6.840;2023-03-14T05:45:47;0.93;;;0.40;;
6019;SDS011;3038;51.122;6.840;2023-03-14T05:48:13;1.47;;;1.00;;
6019;SDS011;3038;51.122;6.840;2023-03-14T05:50:38;2.13;;;0.80;;
6019;SDS011;3038;51.122;6.840;2023-03-14T05:53:03;1.10;;;0.87;;
6019;SDS011;3038;51.122;6.840;2023-03-14T05:55:29;1.60;;;0.90;;
6019;SDS011;3038;51.122;6.840;2023-03-14T05:57:54;0.83;;;0.57;;
6019;SDS011;3038;51.122;6.840;2023-03-14T06:00:20;1.00;;;0.90;;
6019;SDS011;3038;51.122;6.840;2023-03-14T06:02:46;1.00;;;0.80;;
6019;SDS011;3038;51.122;6.840;2023-03-14T06:05:11;0.97;;;0.70;;
6019;SDS011;3038;51.122;6.840;2023-03-14T06:07:37;1.43;;;0.73;;
6019;SDS011;3038;51.122;6.840;2023-03-14T06:10:03;0.90;;;0.60;;
6019;SDS011;3038;51.122;6.840;2023-03-14T06:12:29;0.90;;;0.80;;
6019;SDS011;3038;51.122;6.840;2023-03-14T06:14:54;1.50;;;0.63;;
6019;SDS011;3038;51.122;6.840;2023-03-14T06:17:20;0.67;;;0.50;;
6019;SDS011;3038;51.122;6.840;2023-03-14T06:19:45;1.47;;;0.90;;
6019;SDS011;3038;51.122;6.840;2023-03-14T06:22:11;2.97;;;0.70;;
6019;SDS011;3038;51.122;6.840;2023-03-14T06:24:36;0.90;;;0.50;;
6019;SDS011;3038;51.122;6.840;2023-03-14T06:27:01;0.90;;;0.70;;
6019;SDS011;3038;51.122;6.840;2023-03-14T06:29:28;1.20;;;0.87;;
6019;SDS011;3038;51.122;6.840;2023-03-14T06:31:54;1.10;;;0.70;;
6019;SDS011;3038;51.122;6.840;2023-03-14T06:34:19;1.93;;;1.07;;
6019;SDS011;3038;51.122;6.840;2023-03-14T06:36:45;1.50;;;1.00;;
6019;SDS011;3038;51.122;6.840;2023-03-14T06:39:10;1.40;;;1.20;;
6019;SDS011;3038;51.122;6.840;2023-03-14T06:41:36;1.10;;;1.00;;
6019;SDS011;3038;51.122;6.840;2023-03-14T06:44:01;1.30;;;0.97;;
6019;SDS011;3038;51.122;6.840;2023-03-14T06:46:26;1.63;;;0.70;;
6019;SDS011;3038;51.122;6.840;2023-03-14T06:48:52;0.77;;;0.50;;
6019;SDS011;3038;51.122;6.840;2023-03-14T06:51:18;0.90;;;0.70;;
6019;SDS011;3038;51.122;6.840;2023-03-14T06:53:43;0.80;;;0.70;;
6019;SDS011;3038;51.122;6.840;2023-03-14T06:56:09;3.30;;;1.47;;
6019;SDS011;3038;51.122;6.840;2023-03-14T06:58:34;1.70;;;1.10;;
6019;SDS011;3038;51.122;6.840;2023-03-14T07:01:00;1.63;;;0.50;;
6019;SDS011;3038;51.122;6.840;2023-03-14T07:03:25;1.03;;;0.80;;
6019;SDS011;3038;51.122;6.840;2023-03-14T07:05:51;1.20;;;0.57;;
6019;SDS011;3038;51.122;6.840;2023-03-14T07:08:16;2.10;;;0.60;;
6019;SDS011;3038;51.122;6.840;2023-03-14T07:10:41;0.97;;;0.50;;
6019;SDS011;3038;51.122;6.840;2023-03-14T07:13:07;1.60;;;0.70;;
6019;SDS011;3038;51.122;6.840;2023-03-14T07:15:32;0.93;;;0.60;;
6019;SDS011;3038;51.122;6.840;2023-03-14T07:17:58;1.67;;;0.50;;
6019;SDS011;3038;51.122;6.840;2023-03-14T07:20:23;0.70;;;0.50;;
6019;SDS011;3038;51.122;6.840;2023-03-14T07:22:49;0.90;;;0.60;;
6019;SDS011;3038;51.122;6.840;2023-03-14T07:25:15;1.60;;;0.40;;
6019;SDS011;3038;51.122;6.840;2023-03-14T07:27:42;1.33;;;0.50;;
6019;SDS011;3038;51.122;6.840;2023-03-14T07:30:08;1.07;;;0.60;;
6019;SDS011;3038;51.122;6.840;2023-03-14T07:32:34;0.70;;;0.40;;
6019;SDS011;3038;51.122;6.840;2023-03-14T07:35:00;1.17;;;0.67;;
6019;SDS011;3038;51.122;6.840;2023-03-14T07:37:25;1.80;;;0.57;;
6019;SDS011;3038;51.122;6.840;2023-03-14T07:39:50;0.90;;;0.60;;
6019;SDS011;3038;51.122;6.840;2023-03-14T07:42:16;0.80;;;0.50;;
6019;SDS011;3038;51.122;6.840;2023-03-14T07:44:41;2.30;;;0.70;;
6019;SDS011;3038;51.122;6.840;2023-03-14T07:47:06;1.27;;;0.63;;
6019;SDS011;3038;51.122;6.840;2023-03-14T07:49:32;1.00;;;0.57;;
6019;SDS011;3038;51.122;6.840;2023-03-14T07:51:57;2.37;;;0.70;;
6019;SDS011;3038;51.122;6.840;2023-03-14T07:54:24;1.20;;;0.80;;
6019;SDS011;3038;51.122;6.840;2023-03-14T07:56:50;0.70;;;0.50;;
6019;SDS011;3038;51.122;6.840;2023-03-14T07:59:16;1.10;;;0.70;;
6019;SDS011;3038;51.122;6.840;2023-03-14T08:01:41;0.73;;;0.47;;
6019;SDS011;3038;51.122;6.840;2023-03-14T08:04:07;0.70;;;0.57;;
6019;SDS011;3038;51.122;6.840;2023-03-14T08:06:32;1.50;;;0.90;;
6019;SDS011;3038;51.122;6.840;2023-03-14T08:09:00;1.67;;;0.67;;
6019;SDS011;3038;51.122;6.840;2023-03-14T08:11:25;0.70;;;0.33;;
6019;SDS011;3038;51.122;6.840;2023-03-14T08:13:50;0.80;;;0.50;;
6019;SDS011;3038;51.122;6.840;2023-03-14T08:16:16;1.33;;;0.40;;
6019;SDS011;3038;51.122;6.840;2023-03-14T08:18:42;0.70;;;0.50;;
6019;SDS011;3038;51.122;6.840;2023-03-14T08:21:08;1.23;;;0.40;;
6019;SDS011;3038;51.122;6.840;2023-03-14T08:23:33;0.90;;;0.70;;
6019;SDS011;3038;51.122;6.840;2023-03-14T08:25:59;0.93;;;0.80;;
6019;SDS011;3038;51.122;6.840;2023-03-14T08:28:24;1.00;;;0.73;;
6019;SDS011;3038;51.122;6.840;2023-03-14T08:30:55;0.97;;;0.50;;
6019;SDS011;3038;51.122;6.840;2023-03-14T08:33:21;1.20;;;0.60;;
6019;SDS011;3038;51.122;6.840;2023-03-14T08:35:47;0.80;;;0.60;;
6019;SDS011;3038;51.122;6.840;2023-03-14T08:38:12;0.70;;;0.40;;
6019;SDS011;3038;51.122;6.840;2023-03-14T08:40:38;1.07;;;0.60;;
6019;SDS011;3038;51.122;6.840;2023-03-14T08:43:03;0.83;;;0.50;;
6019;SDS011;3038;51.122;6.840;2023-03-14T08:45:28;0.60;;;0.43;;
6019;SDS011;3038;51.122;6.840;2023-03-14T08:47:54;1.00;;;0.80;;
6019;SDS011;3038;51.122;6.840;2023-03-14T08:50:19;0.93;;;0.70;;
6019;SDS011;3038;51.122;6.840;2023-03-14T08:52:45;1.10;;;0.90;;
6019;SDS011;3038;51.122;6.840;2023-03-14T08:55:10;1.33;;;0.60;;
6019;SDS011;3038;51.122;6.840;2023-03-14T08:57:36;1.10;;;0.70;;
6019;SDS011;3038;51.122;6.840;2023-03-14T09:00:02;2.00;;;0.97;;
6019;SDS011;3038;51.122;6.840;2023-03-14T09:02:30;2.10;;;1.10;;
6019;SDS011;3038;51.122;6.840;2023-03-14T09:04:56;1.20;;;0.90;;
6019;SDS011;3038;51.122;6.840;2023-03-14T09:07:21;0.90;;;0.60;;
6019;SDS011;3038;51.122;6.840;2023-03-14T09:09:46;1.10;;;0.90;;
6019;SDS011;3038;51.122;6.840;2023-03-14T09:12:12;1.00;;;0.80;;
6019;SDS011;3038;51.122;6.840;2023-03-14T09:14:37;0.83;;;0.77;;
6019;SDS011;3038;51.122;6.840;2023-03-14T09:17:03;1.83;;;0.90;;
6019;SDS011;3038;51.122;6.840;2023-03-14T09:19:29;1.07;;;0.83;;
6019;SDS011;3038;51.122;6.840;2023-03-14T09:21:55;1.00;;;0.60;;
6019;SDS011;3038;51.122;6.840;2023-03-14T09:24:20;1.20;;;0.53;;
6019;SDS011;3038;51.122;6.840;2023-03-14T09:26:46;1.27;;;0.87;;
6019;SDS011;3038;51.122;6.840;2023-03-14T09:29:11;0.90;;;0.50;;
6019;SDS011;3038;51.122;6.840;2023-03-14T09:31:36;0.70;;;0.70;;
6019;SDS011;3038;51.122;6.840;2023-03-14T09:34:02;1.40;;;0.50;;
6019;SDS011;3038;51.122;6.840;2023-03-14T09:36:27;0.70;;;0.50;;
6019;SDS011;3038;51.122;6.840;2023-03-14T09:38:52;0.80;;;0.50;;
6019;SDS011;3038;51.122;6.840;2023-03-14T09:41:23;1.73;;;0.60;;
6019;SDS011;3038;51.122;6.840;2023-03-14T09:43:58;1.93;;;0.60;;
6019;SDS011;3038;51.122;6.840;2023-03-14T09:46:29;0.90;;;0.50;;
6019;SDS011;3038;51.122;6.840;2023-03-14T09:48:57;0.70;;;0.50;;
6019;SDS011;3038;51.122;6.840;2023-03-14T09:51:22;1.53;;;0.70;;
6019;SDS011;3038;51.122;6.840;2023-03-14T09:53:49;0.80;;;0.50;;
6019;SDS011;3038;51.122;6.840;2023-03-14T09:56:23;2.50;;;0.80;;
6019;SDS011;3038;51.122;6.840;2023-03-14T09:58:52;1.10;;;0.77;;
6019;SDS011;3038;51.122;6.840;2023-03-14T10:01:25;0.90;;;0.70;;
6019;SDS011;3038;51.122;6.840;2023-03-14T10:03:56;0.87;;;0.70;;
6019;SDS011;3038;51.122;6.840;2023-03-14T10:06:26;2.43;;;1.00;;
6019;SDS011;3038;51.122;6.840;2023-03-14T10:08:54;1.10;;;1.00;;
6019;SDS011;3038;51.122;6.840;2023-03-14T10:11:20;1.17;;;0.53;;
6019;SDS011;3038;51.122;6.840;2023-03-14T10:13:49;2.87;;;1.63;;
6019;SDS011;3038;51.122;6.840;2023-03-14T10:16:45;0.57;;;0.43;;
6019;SDS011;3038;51.122;6.840;2023-03-14T10:19:15;0.80;;;0.60;;
6019;SDS011;3038;51.122;6.840;2023-03-14T10:21:42;1.30;;;0.80;;
6019;SDS011;3038;51.122;6.840;2023-03-14T10:26:52;1.30;;;1.10;;
6019;SDS011;3038;51.122;6.840;2023-03-14T10:29:19;1.20;;;1.03;;
6019;SDS011;3038;51.122;6.840;2023-03-14T10:31:48;2.80;;;1.47;;
6019;SDS011;3038;51.122;6.840;2023-03-14T10:34:23;3.13;;;1.53;;
6019;SDS011;3038;51.122;6.840;2023-03-14T10:37:24;1.13;;;1.03;;
6019;SDS011;3038;51.122;6.840;2023-03-14T10:39:52;2.73;;;1.80;;
6019;SDS011;3038;51.122;6.840;2023-03-14T10:45:00;1.50;;;1.40;;
6019;SDS011;3038;51.122;6.840;2023-03-14T10:47:28;2.17;;;1.97;;
6019;SDS011;3038;51.122;6.840;2023-03-14T10:49:55;1.57;;;1.47;;
6019;SDS011;3038;51.122;6.840;2023-03-14T10:54:54;4.53;;;2.87;;
6019;SDS011;3038;51.122;6.840;2023-03-14T10:57:22;2.40;;;2.03;;
6019;SDS011;3038;51.122;6.840;2023-03-14T10:59:48;2.30;;;2.10;;
6019;SDS011;3038;51.122;6.840;2023-03-14T11:05:14;2.17;;;1.80;;
6019;SDS011;3038;51.122;6.840;2023-03-14T11:07:56;3.40;;;2.23;;
6019;SDS011;3038;51.122;6.840;2023-03-14T11:10:35;2.23;;;1.87;;
6019;SDS011;3038;51.122;6.840;2023-03-14T11:13:15;2.97;;;2.00;;
6019;SDS011;3038;51.122;6.840;2023-03-14T11:21:21;2.20;;;1.60;;
6019;SDS011;3038;51.122;6.840;2023-03-14T11:27:07;2.30;;;1.50;;
6019;SDS011;3038;51.122;6.840;2023-03-14T11:32:17;5.67;;;2.43;;
6019;SDS011;3038;51.122;6.840;2023-03-14T11:34:59;3.40;;;1.60;;
6019;SDS011;3038;51.122;6.840;2023-03-14T11:37:33;2.87;;;1.70;;
6019;SDS011;3038;51.122;6.840;2023-03-14T11:40:05;3.67;;;1.80;;
6019;SDS011;3038;51.122;6.840;2023-03-14T11:42:31;2.67;;;1.60;;
6019;SDS011;3038;51.122;6.840;2023-03-14T11:44:57;6.00;;;1.90;;
6019;SDS011;3038;51.122;6.840;2023-03-14T11:47:32;1.80;;;1.67;;
6019;SDS011;3038;51.122;6.840;2023-03-14T11:50:16;1.50;;;1.37;;
6019;SDS011;3038;51.122;6.840;2023-03-14T11:53:02;4.90;;;1.30;;
6019;SDS011;3038;51.122;6.840;2023-03-14T11:55:34;2.10;;;1.20;;
6019;SDS011;3038;51.122;6.840;2023-03-14T11:58:03;2.53;;;1.20;;
6019;SDS011;3038;51.122;6.840;2023-03-14T12:00:37;3.03;;;1.00;;
6019;SDS011;3038;51.122;6.840;2023-03-14T12:05:50;2.07;;;1.40;;
6019;SDS011;3038;51.122;6.840;2023-03-14T12:11:11;2.70;;;1.30;;
6019;SDS011;3038;51.122;6.840;2023-03-14T12:13:51;1.23;;;1.13;;
6019;SDS011;3038;51.122;6.840;2023-03-14T12:16:26;2.23;;;1.57;;
6019;SDS011;3038;51.122;6.840;2023-03-14T12:18:57;6.53;;;1.40;;
6019;SDS011;3038;51.122;6.840;2023-03-14T12:21:43;1.33;;;1.07;;
6019;SDS011;3038;51.122;6.840;2023-03-14T12:24:30;1.50;;;1.20;;
6019;SDS011;3038;51.122;6.840;2023-03-14T12:27:01;1.53;;;1.40;;
6019;SDS011;3038;51.122;6.840;2023-03-14T12:29:28;3.23;;;1.50;;
6019;SDS011;3038;51.122;6.840;2023-03-14T12:34:27;6.70;;;1.97;;
6019;SDS011;3038;51.122;6.840;2023-03-14T12:36:58;2.03;;;1.60;;
6019;SDS011;3038;51.122;6.840;2023-03-14T12:45:26;5.27;;;1.40;;
6019;SDS011;3038;51.122;6.840;2023-03-14T12:48:16;7.17;;;1.17;;
6019;SDS011;3038;51.122;6.840;2023-03-14T12:50:54;2.63;;;1.80;;
6019;SDS011;3038;51.122;6.840;2023-03-14T12:56:38;3.23;;;1.20;;
6019;SDS011;3038;51.122;6.840;2023-03-14T13:02:13;4.20;;;1.47;;
6019;SDS011;3038;51.122;6.840;2023-03-14T13:07:11;4.03;;;1.63;;
6019;SDS011;3038;51.122;6.840;2023-03-14T13:09:50;8.50;;;2.40;;
6019;SDS011;3038;51.122;6.840;2023-03-14T13:12:22;4.70;;;1.43;;
6019;SDS011;3038;51.122;6.840;2023-03-14T13:14:52;4.37;;;2.30;;
6019;SDS011;3038;51.122;6.840;2023-03-14T13:17:23;2.67;;;1.33;;
6019;SDS011;3038;51.122;6.840;2023-03-14T13:19:52;4.17;;;2.50;;
6019;SDS011;3038;51.122;6.840;2023-03-14T13:22:30;2.27;;;0.83;;
6019;SDS011;3038;51.122;6.840;2023-03-14T13:25:05;4.53;;;1.70;;
6019;SDS011;3038;51.122;6.840;2023-03-14T13:27:33;6.90;;;2.57;;
6019;SDS011;3038;51.122;6.840;2023-03-14T13:33:18;3.90;;;1.50;;
6019;SDS011;3038;51.122;6.840;2023-03-14T13:35:53;6.03;;;2.03;;
6019;SDS011;3038;51.122;6.840;2023-03-14T13:38:20;7.97;;;1.80;;
6019;SDS011;3038;51.122;6.840;2023-03-14T13:40:48;6.93;;;2.93;;
6019;SDS011;3038;51.122;6.840;2023-03-14T13:43:20;12.37;;;3.30;;
6019;SDS011;3038;51.122;6.840;2023-03-14T13:45:50;7.70;;;2.30;;
6019;SDS011;3038;51.122;6.840;2023-03-14T13:48:17;9.67;;;2.93;;
6019;SDS011;3038;51.122;6.840;2023-03-14T13:51:17;7.70;;;2.53;;
6019;SDS011;3038;51.122;6.840;2023-03-14T13:53:50;8.20;;;2.40;;
6019;SDS011;3038;51.122;6.840;2023-03-14T13:56:18;11.60;;;3.30;;
6019;SDS011;3038;51.122;6.840;2023-03-14T13:58:44;11.30;;;2.83;;
6019;SDS011;3038;51.122;6.840;2023-03-14T14:01:31;6.60;;;2.73;;
6019;SDS011;3038;51.122;6.840;2023-03-14T14:03:58;16.60;;;3.60;;
6019;SDS011;3038;51.122;6.840;2023-03-14T14:06:32;4.87;;;2.40;;
6019;SDS011;3038;51.122;6.840;2023-03-14T14:09:09;8.63;;;4.30;;
6019;SDS011;3038;51.122;6.840;2023-03-14T14:11:44;9.80;;;3.83;;
6019;SDS011;3038;51.122;6.840;2023-03-14T14:14:21;8.83;;;3.53;;
6019;SDS011;3038;51.122;6.840;2023-03-14T14:16:54;9.90;;;3.60;;
6019;SDS011;3038;51.122;6.840;2023-03-14T14:19:23;10.13;;;4.33;;
6019;SDS011;3038;51.122;6.840;2023-03-14T14:21:51;8.47;;;3.43;;
6019;SDS011;3038;51.122;6.840;2023-03-14T14:24:17;10.33;;;3.17;;
6019;SDS011;3038;51.122;6.840;2023-03-14T14:26:52;12.20;;;3.83;;
6019;SDS011;3038;51.122;6.840;2023-03-14T14:29:27;11.93;;;3.73;;
6019;SDS011;3038;51.122;6.840;2023-03-14T14:32:01;12.07;;;4.00;;
6019;SDS011;3038;51.122;6.840;2023-03-14T14:34:39;9.23;;;4.73;;
6019;SDS011;3038;51.122;6.840;2023-03-14T14:37:27;12.87;;;4.53;;
6019;SDS011;3038;51.122;6.840;2023-03-14T14:39:58;9.00;;;3.63;;
6019;SDS011;3038;51.122;6.840;2023-03-14T14:42:27;8.40;;;3.77;;
6019;SDS011;3038;51.122;6.840;2023-03-14T14:44:55;10.80;;;3.80;;
6019;SDS011;3038;51.122;6.840;2023-03-14T14:47:23;10.80;;;4.13;;
6019;SDS011;3038;51.122;6.840;2023-03-14T14:49:51;8.17;;;3.67;;
6019;SDS011;3038;51.122;6.840;2023-03-14T14:55:20;11.50;;;2.90;;
6019;SDS011;3038;51.122;6.840;2023-03-14T14:57:50;10.10;;;2.03;;
6019;SDS011;3038;51.122;6.840;2023-03-14T15:00:19;7.00;;;2.40;;
6019;SDS011;3038;51.122;6.840;2023-03-14T15:02:47;13.30;;;3.20;;
6019;SDS011;3038;51.122;6.840;2023-03-14T15:05:24;6.93;;;3.43;;
6019;SDS011;3038;51.122;6.840;2023-03-14T15:07:51;8.77;;;2.60;;
6019;SDS011;3038;51.122;6.840;2023-03-14T15:10:21;10.83;;;3.10;;
6019;SDS011;3038;51.122;6.840;2023-03-14T15:12:47;6.60;;;2.60;;
6019;SDS011;3038;51.122;6.840;2023-03-14T15:15:13;12.17;;;2.47;;
6019;SDS011;3038;51.122;6.840;2023-03-14T15:17:38;8.43;;;3.33;;
6019;SDS011;3038;51.122;6.840;2023-03-14T15:20:04;11.53;;;2.37;;
6019;SDS011;3038;51.122;6.840;2023-03-14T15:22:34;8.30;;;1.97;;
6019;SDS011;3038;51.122;6.840;2023-03-14T15:24:59;7.10;;;2.27;;
6019;SDS011;3038;51.122;6.840;2023-03-14T15:27:25;8.00;;;2.50;;
6019;SDS011;3038;51.122;6.840;2023-03-14T15:29:51;4.47;;;1.93;;
6019;SDS011;3038;51.122;6.840;2023-03-14T15:32:16;12.70;;;1.87;;
6019;SDS011;3038;51.122;6.840;2023-03-14T15:34:43;8.23;;;1.90;;
6019;SDS011;3038;51.122;6.840;2023-03-14T15:37:12;5.20;;;1.43;;
6019;SDS011;3038;51.122;6.840;2023-03-14T15:39:40;6.63;;;1.83;;
6019;SDS011;3038;51.122;6.840;2023-03-14T15:42:06;6.47;;;2.53;;
6019;SDS011;3038;51.122;6.840;2023-03-14T15:44:32;4.30;;;1.67;;
6019;SDS011;3038;51.122;6.840;2023-03-14T15:46:57;5.83;;;2.00;;
6019;SDS011;3038;51.122;6.840;2023-03-14T15:49:23;8.57;;;2.07;;
6019;SDS011;3038;51.122;6.840;2023-03-14T15:51:48;9.00;;;1.97;;
6019;SDS011;3038;51.122;6.840;2023-03-14T15:54:13;3.73;;;1.63;;
6019;SDS011;3038;51.122;6.840;2023-03-14T15:56:39;5.33;;;1.20;;
6019;SDS011;3038;51.122;6.840;2023-03-14T15:59:05;9.57;;;3.70;;
6019;SDS011;3038;51.122;6.840;2023-03-14T16:01:30;8.83;;;2.57;;
6019;SDS011;3038;51.122;6.840;2023-03-14T16:03:55;2.37;;;1.40;;
6019;SDS011;3038;51.122;6.840;2023-03-14T16:06:21;8.50;;;2.17;;
6019;SDS011;3038;51.122;6.840;2023-03-14T16:08:46;5.40;;;1.97;;
6019;SDS011;3038;51.122;6.840;2023-03-14T16:11:12;6.27;;;2.23;;
6019;SDS011;3038;51.122;6.840;2023-03-14T16:13:39;4.37;;;1.70;;